Jiddah, Saudi Arabia
Current Conditions -  °F | °C
As of 10:00 AM on Thursday 27 Nov 2014 (Local Time) from OEJN Reporting Station
Few Clouds Few Clouds  
Wind Chill: 79°   Ceiling: Unl
Heat Index: 79°   Visibility: 6mi
Dew Point: 52°   Wind: 12mph
Humidity: 39%   Direction: 10°N
Pressure: 29.97"   Gusts: NA
Location:  21.5°N, 39.17°E
Report Text: OEJN 270700Z 01010KT 9999 FEW040 26/11 Q1015 NOSIG
Loading
Personal Weather Stations






























Interactive Weather Map New forecast layout! Learn more

10-Day Weather Forecast

Advertisements
Track Severe Weather on mobile